createdAt,value
2022-08-17T00:02:25.517Z,5.55
2022-08-17T00:05:33.891Z,5.78
2022-08-17T00:08:45.124Z,5.68
2022-08-17T00:12:40.798Z,5.25
2022-08-17T00:15:14.537Z,5.32
2022-08-17T00:19:01.244Z,4.95
2022-08-17T00:22:14.750Z,4.95
2022-08-17T00:25:13.272Z,5.28
2022-08-17T00:28:17.936Z,5.03
2022-08-17T00:31:24.578Z,5.20
2022-08-17T00:34:28.043Z,4.95
2022-08-17T00:37:36.612Z,5.15
2022-08-17T00:40:44.421Z,5.22
2022-08-17T00:43:50.601Z,5.10
2022-08-17T00:46:54.018Z,5.55
2022-08-17T00:49:57.331Z,5.53
2022-08-17T00:53:02.614Z,5.13
2022-08-17T00:56:09.367Z,5.22
2022-08-17T00:59:15.514Z,5.13
2022-08-17T01:02:20.094Z,4.82
2022-08-17T01:05:27.884Z,5.13
2022-08-17T01:08:34.520Z,5.40
2022-08-17T01:11:40.660Z,5.80
2022-08-17T01:14:44.505Z,5.57
2022-08-17T01:17:48.276Z,4.68
2022-08-17T01:20:54.647Z,4.90
2022-08-17T01:23:59.650Z,4.90
2022-08-17T01:27:04.179Z,5.13
2022-08-17T01:30:58.255Z,4.70
2022-08-17T01:33:38.495Z,5.55
2022-08-17T01:36:44.750Z,4.70
2022-08-17T01:39:53.800Z,5.47
2022-08-17T01:43:01.195Z,5.47
2022-08-17T01:46:04.702Z,5.25
2022-08-17T01:49:09.936Z,4.90
2022-08-17T01:52:14.085Z,4.75
2022-08-17T01:55:27.350Z,5.05
2022-08-17T01:58:30.879Z,5.60
2022-08-17T02:01:35.836Z,4.82
2022-08-17T02:04:39.298Z,4.80
2022-08-17T02:07:59.752Z,5.30
2022-08-17T02:11:11.281Z,5.47
2022-08-17T02:14:15.473Z,4.97
2022-08-17T02:17:18.872Z,5.07
2022-08-17T02:20:41.529Z,5.13
2022-08-17T02:23:49.829Z,5.88
2022-08-17T02:26:54.550Z,5.50
2022-08-17T02:29:58.037Z,5.75
2022-08-17T02:33:04.217Z,5.30
2022-08-17T02:36:10.500Z,5.53
2022-08-17T02:39:14.307Z,5.03
2022-08-17T02:42:19.089Z,5.55
2022-08-17T02:45:25.468Z,5.65
2022-08-17T02:48:31.172Z,5.13
2022-08-17T02:51:35.650Z,5.30
2022-08-17T02:54:42.062Z,5.22
2022-08-17T02:57:47.614Z,5.30
2022-08-17T03:00:50.953Z,5.55
2022-08-17T03:03:54.615Z,5.60
2022-08-17T03:06:57.932Z,5.00
2022-08-17T03:10:01.311Z,5.40
2022-08-17T03:13:06.482Z,5.63
2022-08-17T03:16:10.020Z,5.72
2022-08-17T03:19:13.439Z,5.43
2022-08-17T03:22:35.614Z,5.57
2022-08-17T03:25:44.187Z,5.80
2022-08-17T03:28:48.990Z,5.88
2022-08-17T03:31:52.494Z,5.30
2022-08-17T03:34:59.727Z,5.45
2022-08-17T03:38:03.777Z,5.72
2022-08-17T03:41:07.951Z,5.65
2022-08-17T03:44:12.651Z,6.15
2022-08-17T03:47:33.481Z,5.85
2022-08-17T03:50:54.204Z,5.75
2022-08-17T03:54:18.011Z,5.72
2022-08-17T03:57:21.648Z,5.85
2022-08-17T04:00:27.732Z,5.78
2022-08-17T04:03:31.313Z,5.35
2022-08-17T04:06:35.020Z,5.78
2022-08-17T04:09:38.343Z,5.57
2022-08-17T04:12:47.049Z,5.65
2022-08-17T04:15:52.005Z,5.57
2022-08-17T04:18:55.484Z,5.82
2022-08-17T04:22:00.083Z,5.70
2022-08-17T04:25:07.694Z,5.90
2022-08-17T04:28:16.195Z,5.85
2022-08-17T04:31:21.392Z,5.75
2022-08-17T04:34:25.327Z,5.50
2022-08-17T04:37:28.763Z,5.43
2022-08-17T04:40:49.655Z,6.07
2022-08-17T04:43:56.144Z,6.07
2022-08-17T04:47:00.868Z,5.47
2022-08-17T04:50:04.582Z,5.47
2022-08-17T04:53:07.919Z,5.50
2022-08-17T04:56:16.916Z,5.72
2022-08-17T04:59:23.284Z,6.18
2022-08-17T05:02:28.054Z,5.38
2022-08-17T05:05:34.280Z,5.90
2022-08-17T05:08:37.649Z,5.47
2022-08-17T05:11:44.952Z,5.60
2022-08-17T05:14:48.489Z,6.07
2022-08-17T05:17:53.161Z,5.28
2022-08-17T05:20:56.698Z,5.32
2022-08-17T05:24:01.017Z,6.10
2022-08-17T05:27:09.329Z,5.47
2022-08-17T05:30:14.181Z,5.85
2022-08-17T05:33:21.352Z,5.88
2022-08-17T05:36:42.737Z,6.00
2022-08-17T05:39:47.660Z,5.63
2022-08-17T05:42:51.830Z,5.28
2022-08-17T05:46:02.807Z,5.68
2022-08-17T05:49:09.144Z,5.53
2022-08-17T05:52:25.681Z,5.47
2022-08-17T05:55:39.914Z,5.47
2022-08-17T05:58:54.228Z,4.80
2022-08-17T06:02:06.943Z,4.93
2022-08-17T06:05:34.380Z,5.35
2022-08-17T06:08:51.550Z,5.35
2022-08-17T06:12:00.218Z,4.40
2022-08-17T06:15:19.550Z,5.20
2022-08-17T06:18:27.764Z,5.15
2022-08-17T06:21:37.099Z,5.05
2022-08-17T06:24:44.453Z,5.20
2022-08-17T06:27:53.707Z,4.70
2022-08-17T06:31:01.470Z,5.05
2022-08-17T06:34:09.843Z,4.80
2022-08-17T06:37:32.417Z,5.63
2022-08-17T06:41:00.477Z,4.78
2022-08-17T06:44:43.152Z,5.28
2022-08-17T06:47:54.011Z,4.90
2022-08-17T06:51:02.073Z,4.97
2022-08-17T06:54:14.777Z,5.35
2022-08-17T06:57:23.720Z,4.85
2022-08-17T07:00:33.689Z,4.63
2022-08-17T07:03:47.748Z,5.03
2022-08-17T07:06:53.767Z,5.00
2022-08-17T07:10:02.504Z,4.80
2022-08-17T07:13:29.605Z,4.85
2022-08-17T07:16:45.814Z,4.85
2022-08-17T07:19:51.268Z,5.03
2022-08-17T07:23:05.767Z,4.80
2022-08-17T07:26:13.418Z,5.20
2022-08-17T07:29:20.051Z,4.85
2022-08-17T07:32:27.452Z,5.40
2022-08-17T07:35:40.752Z,5.22
2022-08-17T07:38:58.002Z,5.30
2022-08-17T07:42:06.406Z,6.13
2022-08-17T07:45:31.332Z,5.32
2022-08-17T07:48:37.399Z,5.05
2022-08-17T07:51:55.481Z,11.07
2022-08-17T07:55:00.566Z,15.82
2022-08-17T07:58:05.752Z,12.25
2022-08-17T08:01:15.657Z,10.00
2022-08-17T08:04:59.037Z,6.63
2022-08-17T08:07:57.153Z,5.93
2022-08-17T08:11:08.110Z,7.18
2022-08-17T08:14:28.439Z,14.90
2022-08-17T08:17:35.913Z,13.35
2022-08-17T08:20:53.494Z,12.13
2022-08-17T08:24:18.404Z,5.18
2022-08-17T08:27:32.183Z,5.65
2022-08-17T08:30:46.771Z,7.00
2022-08-17T08:34:01.152Z,7.68
2022-08-17T08:37:20.670Z,5.65
2022-08-17T08:40:48.596Z,4.75
2022-08-17T08:44:06.165Z,5.03
2022-08-17T08:47:20.770Z,13.32
2022-08-17T08:50:37.840Z,7.20
2022-08-17T08:53:52.069Z,5.70
2022-08-17T09:00:35.928Z,4.88
2022-08-17T09:03:55.002Z,3.60
2022-08-17T09:07:15.781Z,3.88
2022-08-17T09:10:26.080Z,3.95
2022-08-17T09:13:38.111Z,4.43
2022-08-17T09:16:50.304Z,4.43
2022-08-17T09:20:02.197Z,3.70
2022-08-17T09:23:11.927Z,4.10
2022-08-17T09:26:22.989Z,4.43
2022-08-17T09:29:30.075Z,3.75
2022-08-17T09:32:40.561Z,3.97
2022-08-17T09:35:53.571Z,6.03
2022-08-17T09:39:03.495Z,4.93
2022-08-17T09:42:14.933Z,3.92
2022-08-17T09:45:29.237Z,3.40
2022-08-17T09:48:38.926Z,3.42
2022-08-17T09:51:49.122Z,4.40
2022-08-17T09:54:55.945Z,3.97
2022-08-17T09:58:06.217Z,3.83
2022-08-17T10:01:20.487Z,3.38
2022-08-17T10:04:46.969Z,3.65
2022-08-17T10:07:58.196Z,3.63
2022-08-17T10:11:13.669Z,3.80
2022-08-17T10:14:36.227Z,3.55
2022-08-17T10:17:54.106Z,3.47
2022-08-17T10:21:19.849Z,4.18
2022-08-17T10:25:20.947Z,3.45
2022-08-17T10:28:19.979Z,3.65
2022-08-17T10:31:36.464Z,3.58
2022-08-17T10:35:03.901Z,3.53
2022-08-17T10:38:46.205Z,3.70
2022-08-17T10:41:55.381Z,3.25
2022-08-17T10:45:02.893Z,3.53
2022-08-17T10:48:29.017Z,4.05
2022-08-17T10:51:38.505Z,4.15
2022-08-17T10:54:49.442Z,3.60
2022-08-17T10:58:21.106Z,3.63
2022-08-17T11:02:05.567Z,3.38
2022-08-17T11:05:52.338Z,3.30
2022-08-17T11:09:21.164Z,3.70
2022-08-17T11:12:38.778Z,3.42
2022-08-17T11:15:59.947Z,3.40
2022-08-17T11:19:34.981Z,4.00
2022-08-17T11:23:20.049Z,3.42
2022-08-17T11:26:27.123Z,3.45
2022-08-17T11:29:36.865Z,3.17
2022-08-17T11:32:48.669Z,3.28
2022-08-17T11:36:06.506Z,3.05
2022-08-17T11:39:30.058Z,3.55
2022-08-17T11:42:49.106Z,3.15
2022-08-17T11:46:16.143Z,3.63
2022-08-17T11:49:45.096Z,3.40
2022-08-17T11:52:50.226Z,3.10
2022-08-17T11:56:05.244Z,3.67
2022-08-17T11:59:46.115Z,3.40
2022-08-17T12:02:49.579Z,3.05
2022-08-17T12:06:04.043Z,3.28
2022-08-17T12:09:12.118Z,3.15
2022-08-17T12:12:18.970Z,3.08
2022-08-17T12:15:30.208Z,3.30
2022-08-17T12:18:38.475Z,3.38
2022-08-17T12:21:53.947Z,3.05
2022-08-17T12:25:05.004Z,2.80
2022-08-17T12:28:23.460Z,2.90
2022-08-17T12:31:30.088Z,3.10
2022-08-17T12:34:38.465Z,2.50
2022-08-17T12:37:48.291Z,3.17
2022-08-17T12:40:58.095Z,2.80
2022-08-17T12:44:04.362Z,2.88
2022-08-17T12:47:21.018Z,3.33
2022-08-17T12:50:28.601Z,3.25
2022-08-17T12:53:40.063Z,3.40
2022-08-17T12:56:47.507Z,3.17
2022-08-17T12:59:55.945Z,3.33
2022-08-17T13:03:02.514Z,3.08
2022-08-17T13:06:08.800Z,3.08
2022-08-17T13:09:15.401Z,3.58
2022-08-17T13:12:28.119Z,3.40
2022-08-17T13:15:37.087Z,3.42
2022-08-17T13:18:43.643Z,3.33
2022-08-17T13:21:49.290Z,3.20
2022-08-17T13:24:56.435Z,3.65
2022-08-17T13:28:00.443Z,2.90
2022-08-17T13:31:24.322Z,3.58
2022-08-17T13:34:49.614Z,2.80
2022-08-17T13:38:03.161Z,3.22
2022-08-17T13:41:08.119Z,3.28
2022-08-17T13:44:34.899Z,3.50
2022-08-17T13:47:38.277Z,2.97
2022-08-17T13:50:45.158Z,3.67
2022-08-17T13:53:58.351Z,3.17
2022-08-17T13:57:06.698Z,3.28
2022-08-17T14:00:17.568Z,3.28
2022-08-17T14:03:21.895Z,3.28
2022-08-17T14:06:52.354Z,3.17
2022-08-17T14:09:54.525Z,3.35
2022-08-17T14:12:59.683Z,3.13
2022-08-17T14:16:03.104Z,3.20
2022-08-17T14:19:06.389Z,3.53
2022-08-17T14:22:16.186Z,3.42
2022-08-17T14:25:23.054Z,3.17
2022-08-17T14:28:27.901Z,2.90
2022-08-17T14:31:36.826Z,3.28
2022-08-17T14:34:40.814Z,3.05
2022-08-17T14:37:45.757Z,3.15
2022-08-17T14:40:50.622Z,3.83
2022-08-17T14:43:55.358Z,4.32
2022-08-17T14:46:58.768Z,4.35
2022-08-17T14:50:02.911Z,3.80
2022-08-17T14:53:07.771Z,4.28
2022-08-17T14:56:11.144Z,4.03
2022-08-17T14:59:16.313Z,3.38
2022-08-17T15:02:19.876Z,3.80
2022-08-17T15:05:24.681Z,4.00
2022-08-17T15:08:30.057Z,4.10
2022-08-17T15:11:33.451Z,3.72
2022-08-17T15:14:38.185Z,4.35
2022-08-17T15:17:43.915Z,4.10
2022-08-17T15:20:50.327Z,3.72
2022-08-17T15:23:53.658Z,4.15
2022-08-17T15:26:57.141Z,3.83
2022-08-17T15:30:01.940Z,4.60
2022-08-17T15:33:05.515Z,3.97
2022-08-17T15:36:09.816Z,4.13
2022-08-17T15:39:13.232Z,3.92
2022-08-17T15:42:18.023Z,4.50
2022-08-17T15:45:28.427Z,4.47
2022-08-17T15:48:43.902Z,4.13
2022-08-17T15:51:47.230Z,4.72
2022-08-17T15:54:52.290Z,4.03
2022-08-17T15:57:55.638Z,4.90
2022-08-17T16:01:14.738Z,4.53
2022-08-17T16:04:30.018Z,4.50
2022-08-17T16:07:33.977Z,4.38
2022-08-17T16:10:37.853Z,5.15
2022-08-17T16:13:41.728Z,4.80
2022-08-17T16:16:52.158Z,4.35
2022-08-17T16:19:56.092Z,4.30
2022-08-17T16:22:59.454Z,4.50
2022-08-17T16:26:02.810Z,4.53
2022-08-17T16:29:08.318Z,4.90
2022-08-17T16:32:16.088Z,4.28
2022-08-17T16:35:22.145Z,3.90
2022-08-17T16:38:26.124Z,4.53
2022-08-17T16:41:45.174Z,4.20
2022-08-17T16:44:48.988Z,4.60
2022-08-17T16:47:54.812Z,5.07
2022-08-17T16:51:03.032Z,4.38
2022-08-17T16:54:08.761Z,4.82
2022-08-17T16:57:12.821Z,4.75
2022-08-17T17:00:19.412Z,4.60
2022-08-17T17:03:28.281Z,4.78
2022-08-17T17:06:41.621Z,4.70
2022-08-17T17:09:48.804Z,5.63
2022-08-17T17:13:01.466Z,5.15
2022-08-17T17:16:18.258Z,4.90
2022-08-17T17:19:34.453Z,4.43
2022-08-17T17:22:47.194Z,4.50
2022-08-17T17:25:59.332Z,4.65
2022-08-17T17:29:19.599Z,4.72
2022-08-17T17:32:37.967Z,5.07
2022-08-17T17:35:51.531Z,4.70
2022-08-17T17:39:00.491Z,5.10
2022-08-17T17:42:07.781Z,4.85
2022-08-17T17:45:19.980Z,5.25
2022-08-17T17:48:23.780Z,4.90
2022-08-17T17:52:06.662Z,5.28
2022-08-17T17:55:13.390Z,5.10
2022-08-17T17:58:29.181Z,5.35
2022-08-17T18:01:46.261Z,6.03
2022-08-17T18:05:01.236Z,6.00
2022-08-17T18:08:16.611Z,6.20
2022-08-17T18:11:37.137Z,5.78
2022-08-17T18:14:56.152Z,5.53
2022-08-17T18:18:38.086Z,5.80
2022-08-17T18:21:45.950Z,5.40
2022-08-17T18:24:56.553Z,5.20
2022-08-17T18:27:59.914Z,5.07
2022-08-17T18:31:10.192Z,5.40
2022-08-17T18:34:45.812Z,5.30
2022-08-17T18:37:51.296Z,4.63
2022-08-17T18:41:03.625Z,5.10
2022-08-17T18:44:22.411Z,5.25
2022-08-17T18:47:27.993Z,5.55
2022-08-17T18:50:39.722Z,5.38
2022-08-17T18:53:43.147Z,5.18
2022-08-17T18:56:54.862Z,4.85
2022-08-17T18:59:58.276Z,5.20
2022-08-17T19:03:04.245Z,5.68
2022-08-17T19:06:23.895Z,5.38
2022-08-17T19:09:34.321Z,5.13
2022-08-17T19:12:45.301Z,5.97
2022-08-17T19:16:12.010Z,5.93
2022-08-17T19:19:23.418Z,5.90
2022-08-17T19:22:31.228Z,5.45
2022-08-17T19:25:39.474Z,5.00
2022-08-17T19:28:48.668Z,5.22
2022-08-17T19:31:55.320Z,4.75
2022-08-17T19:35:00.650Z,5.25
2022-08-17T19:38:12.943Z,5.07
2022-08-17T19:41:23.924Z,4.93
2022-08-17T19:44:50.387Z,5.65
2022-08-17T19:48:03.038Z,5.60
2022-08-17T19:51:12.558Z,5.57
2022-08-17T19:54:22.838Z,6.18
2022-08-17T19:57:34.697Z,5.40
2022-08-17T20:00:46.985Z,5.72
2022-08-17T20:03:59.067Z,5.78
2022-08-17T20:07:07.485Z,5.95
2022-08-17T20:10:20.687Z,5.82
2022-08-17T20:13:33.358Z,6.20
2022-08-17T20:16:38.602Z,5.80
2022-08-17T20:19:52.189Z,5.65
2022-08-17T20:23:03.776Z,5.05
2022-08-17T20:26:20.043Z,5.13
2022-08-17T20:29:37.472Z,4.93
2022-08-17T20:32:55.390Z,5.15
2022-08-17T20:36:06.043Z,4.78
2022-08-17T20:39:32.115Z,5.22
2022-08-17T20:42:39.097Z,5.80
2022-08-17T20:46:16.919Z,5.18
2022-08-17T20:49:28.272Z,5.35
2022-08-17T20:52:52.769Z,5.05
2022-08-17T20:55:57.122Z,5.47
2022-08-17T20:59:01.345Z,5.75
2022-08-17T21:02:18.519Z,5.82
2022-08-17T21:05:34.602Z,5.50
2022-08-17T21:08:45.711Z,6.10
2022-08-17T21:12:04.210Z,5.68
2022-08-17T21:15:13.041Z,5.80
2022-08-17T21:18:27.480Z,5.68
2022-08-17T21:21:47.191Z,6.60
2022-08-17T21:24:59.932Z,5.45
2022-08-17T21:28:12.975Z,5.93
2022-08-17T21:31:33.202Z,5.88
2022-08-17T21:34:39.292Z,5.20
2022-08-17T21:37:48.074Z,5.15
2022-08-17T21:40:53.436Z,5.30
2022-08-17T21:44:05.221Z,4.75
2022-08-17T21:47:19.541Z,5.22
2022-08-17T21:50:25.686Z,5.28
2022-08-17T21:53:39.985Z,5.43
2022-08-17T21:56:48.317Z,5.22
2022-08-17T21:59:57.650Z,5.28
2022-08-17T22:03:04.176Z,4.90
2022-08-17T22:06:22.455Z,5.38
2022-08-17T22:09:29.724Z,5.20
2022-08-17T22:12:35.095Z,5.13
2022-08-17T22:15:39.940Z,5.53
2022-08-17T22:18:44.783Z,5.53
2022-08-17T22:21:48.164Z,5.55
2022-08-17T22:24:57.575Z,5.55
2022-08-17T22:28:02.991Z,5.78
2022-08-17T22:31:09.077Z,5.85
2022-08-17T22:34:15.891Z,5.78
2022-08-17T22:37:27.492Z,5.07
2022-08-17T22:40:35.226Z,5.35
2022-08-17T22:43:43.121Z,4.93
2022-08-17T22:46:56.640Z,5.20
2022-08-17T22:50:03.198Z,5.30
2022-08-17T22:53:34.125Z,4.35
2022-08-17T22:56:57.261Z,5.28
2022-08-17T23:00:03.029Z,5.05
2022-08-17T23:03:15.371Z,5.30
2022-08-17T23:06:18.786Z,4.78
2022-08-17T23:09:22.307Z,5.38
2022-08-17T23:12:28.095Z,5.45
2022-08-17T23:15:33.568Z,5.18
2022-08-17T23:18:37.476Z,5.35
2022-08-17T23:21:41.166Z,5.47
2022-08-17T23:24:49.086Z,5.38
2022-08-17T23:27:54.596Z,4.95
2022-08-17T23:30:58.312Z,5.38
2022-08-17T23:34:02.231Z,5.38
2022-08-17T23:37:05.587Z,5.00
2022-08-17T23:40:10.382Z,5.40
2022-08-17T23:43:23.732Z,5.10
2022-08-17T23:46:28.289Z,5.50
2022-08-17T23:49:32.461Z,5.43
2022-08-17T23:52:37.867Z,5.25
2022-08-17T23:55:41.207Z,4.72
2022-08-17T23:58:46.588Z,5.28
